Time;durP1;ratioP1;P1;durP2;ratioP2;P2;SDS_P1;SDS_P2;PMS_P1;PMS_P2;Temp;Humidity;BMP_temperature;BMP_pressure;BME280_temperature;BME280_humidity;BME280_pressure;Samples;Min_cycle;Max_cycle;Signal;HPM_P1;HPM_P2
2023/03/05 00:01:32;;;;;;;10.73;2.90;;;2.50;99.90;;;;;;5011811;28;20183;-83
2023/03/05 00:03:58;;;;;;;6.67;2.73;;;2.50;99.90;;;;;;5013310;28;20175;-83
2023/03/05 00:06:26;;;;;;;7.80;2.30;;;2.50;99.90;;;;;;5011455;28;20179;-82
2023/03/05 00:08:53;;;;;;;10.43;3.17;;;2.50;99.90;;;;;;5011912;28;20274;-83
2023/03/05 00:11:20;;;;;;;15.90;3.40;;;2.50;99.90;;;;;;5016551;28;20614;-83
2023/03/05 00:13:47;;;;;;;8.90;2.97;;;2.50;99.90;;;;;;5016185;28;20564;-83
2023/03/05 00:16:14;;;;;;;17.77;2.93;;;2.40;99.90;;;;;;4996091;28;20180;-83
2023/03/05 00:18:42;;;;;;;8.77;3.17;;;2.50;99.90;;;;;;4996082;28;20184;-84
2023/03/05 00:21:23;;;;;;;8.57;3.00;;;2.60;99.90;;;;;;4996101;28;20183;-83
2023/03/05 00:23:52;;;;;;;5.63;2.97;;;2.50;99.90;;;;;;4997163;28;20215;-84
2023/03/05 00:26:20;;;;;;;7.33;2.73;;;2.50;99.90;;;;;;4996859;28;20179;-83
2023/03/05 00:28:48;;;;;;;9.40;3.50;;;2.50;99.90;;;;;;5015501;28;20179;-83
2023/03/05 00:31:15;;;;;;;10.07;3.03;;;2.50;99.90;;;;;;5006941;28;20561;-83
2023/03/05 00:33:42;;;;;;;9.47;3.50;;;2.50;99.90;;;;;;5014406;28;20184;-83
2023/03/05 00:36:08;;;;;;;15.27;4.23;;;2.50;99.90;;;;;;5015334;28;20179;-83
2023/03/05 00:38:34;;;;;;;13.47;3.50;;;2.50;99.90;;;;;;4995501;28;20275;-83
2023/03/05 00:41:01;;;;;;;12.70;4.40;;;2.40;99.90;;;;;;5010443;28;20191;-83
2023/03/05 00:43:27;;;;;;;8.63;3.50;;;2.40;99.90;;;;;;5014941;28;20215;-83
2023/03/05 00:45:53;;;;;;;8.63;3.30;;;2.50;99.90;;;;;;5016139;28;20164;-84
2023/03/05 00:48:18;;;;;;;8.40;3.20;;;2.40;99.90;;;;;;5015302;28;20274;-84
2023/03/05 00:50:45;;;;;;;8.00;3.17;;;2.40;99.90;;;;;;5015136;28;20206;-83
2023/03/05 00:53:10;;;;;;;8.23;3.27;;;2.40;99.90;;;;;;5015430;28;20187;-83
2023/03/05 00:55:36;;;;;;;9.07;3.00;;;2.40;99.90;;;;;;5014316;28;20241;-83
2023/03/05 00:58:02;;;;;;;12.00;3.73;;;2.40;99.90;;;;;;5013988;28;20179;-83
2023/03/05 01:00:28;;;;;;;8.37;3.10;;;2.40;99.90;;;;;;5014849;28;20187;-83
2023/03/05 01:02:55;;;;;;;6.07;2.60;;;2.50;99.90;;;;;;4998926;28;20678;-84
2023/03/05 01:05:20;;;;;;;8.83;3.33;;;2.40;99.90;;;;;;4994371;28;20271;-84
2023/03/05 01:07:46;;;;;;;7.00;2.80;;;2.40;99.90;;;;;;4994357;28;20266;-83
2023/03/05 01:10:12;;;;;;;5.63;3.00;;;2.40;99.90;;;;;;4994802;28;20225;-83
2023/03/05 01:12:38;;;;;;;6.60;2.70;;;2.50;99.90;;;;;;4994503;28;20188;-83
2023/03/05 01:15:05;;;;;;;7.37;2.63;;;2.40;99.90;;;;;;5000666;28;20183;-84
2023/03/05 01:17:31;;;;;;;6.47;2.73;;;2.40;99.90;;;;;;5014483;28;20237;-83
2023/03/05 01:19:57;;;;;;;7.83;3.00;;;2.30;99.90;;;;;;5013380;28;20270;-84
2023/03/05 01:22:22;;;;;;;11.07;3.10;;;2.30;99.90;;;;;;5013865;28;20219;-84
2023/03/05 01:24:48;;;;;;;10.63;3.20;;;2.30;99.90;;;;;;5014221;28;20183;-83
2023/03/05 01:27:14;;;;;;;8.03;3.07;;;2.30;99.90;;;;;;5014096;28;20221;-84
2023/03/05 01:29:39;;;;;;;9.73;3.17;;;2.40;99.90;;;;;;5013145;28;20527;-84
2023/03/05 01:32:05;;;;;;;11.33;2.87;;;2.50;99.90;;;;;;5013458;28;20290;-83
2023/03/05 01:34:31;;;;;;;6.63;2.97;;;2.50;99.90;;;;;;5008555;28;20658;-84
2023/03/05 01:36:57;;;;;;;10.90;2.80;;;2.50;99.90;;;;;;4995105;28;20179;-83
2023/03/05 01:39:22;;;;;;;8.80;3.10;;;2.40;99.90;;;;;;4994526;28;20179;-83
2023/03/05 01:41:48;;;;;;;9.03;3.40;;;2.40;99.90;;;;;;4994065;28;20689;-83
2023/03/05 01:44:26;;;;;;;9.90;3.00;;;2.40;99.90;;;;;;4995466;28;20206;-83
2023/03/05 01:46:52;;;;;;;9.90;3.30;;;2.40;99.90;;;;;;4994594;28;20629;-83
2023/03/05 01:49:23;;;;;;;10.80;3.03;;;2.40;99.90;;;;;;4993225;28;20187;-83
2023/03/05 01:51:58;;;;;;;10.30;2.90;;;2.40;99.90;;;;;;4995284;28;20623;-83
2023/03/05 01:54:32;;;;;;;8.53;2.90;;;2.40;99.90;;;;;;4998798;28;20614;-83
2023/03/05 01:57:03;;;;;;;9.50;2.90;;;2.40;99.90;;;;;;5013234;28;20287;-83
2023/03/05 01:59:30;;;;;;;8.10;3.17;;;2.40;99.90;;;;;;5013741;28;20194;-83
2023/03/05 02:01:57;;;;;;;9.13;3.17;;;2.30;99.90;;;;;;5012227;28;20198;-83
2023/03/05 02:04:31;;;;;;;11.17;3.00;;;2.40;99.90;;;;;;5013538;28;20234;-83
2023/03/05 02:06:58;;;;;;;8.00;2.93;;;2.40;99.90;;;;;;5013459;28;20179;-83
2023/03/05 02:09:27;;;;;;;6.87;2.97;;;2.40;99.90;;;;;;5013294;28;20542;-83
2023/03/05 02:11:53;;;;;;;8.03;3.03;;;2.40;99.90;;;;;;5012493;28;20182;-83
2023/03/05 02:14:19;;;;;;;7.93;2.90;;;2.40;99.90;;;;;;5014071;28;20175;-83
2023/03/05 02:16:45;;;;;;;7.17;2.90;;;2.40;99.90;;;;;;5014606;28;20221;-84
2023/03/05 02:19:12;;;;;;;7.23;2.73;;;2.50;99.90;;;;;;5012710;28;20621;-83
2023/03/05 02:21:44;;;;;;;8.03;2.87;;;2.50;99.90;;;;;;5002090;28;20200;-85
2023/03/05 02:24:16;;;;;;;9.83;2.67;;;2.50;99.90;;;;;;5006544;28;20559;-83
2023/03/05 02:26:43;;;;;;;11.73;2.33;;;2.50;99.90;;;;;;5005241;28;20634;-83
2023/03/05 02:29:16;;;;;;;9.60;2.20;;;2.40;99.90;;;;;;5002754;28;20196;-83
2023/03/05 02:31:42;;;;;;;10.33;2.70;;;2.40;99.90;;;;;;5010648;28;20685;-83
2023/03/05 02:34:09;;;;;;;11.23;2.57;;;2.40;99.90;;;;;;5013277;28;20187;-83
2023/03/05 02:36:35;;;;;;;7.63;2.40;;;2.40;99.90;;;;;;5013145;28;20665;-84
2023/03/05 02:39:01;;;;;;;7.53;2.03;;;2.40;99.90;;;;;;5012869;28;20180;-83
2023/03/05 02:41:26;;;;;;;7.00;2.00;;;2.40;99.90;;;;;;5011497;28;20190;-84
2023/03/05 02:43:52;;;;;;;6.47;2.13;;;2.40;99.90;;;;;;5013210;28;20203;-84
2023/03/05 02:46:18;;;;;;;6.80;2.03;;;2.40;99.90;;;;;;5013050;28;20230;-85
2023/03/05 02:48:44;;;;;;;7.83;2.03;;;2.40;99.90;;;;;;5013089;28;20187;-83
2023/03/05 02:51:10;;;;;;;12.67;1.93;;;2.40;99.90;;;;;;5012403;28;20187;-83
2023/03/05 02:53:35;;;;;;;10.27;1.83;;;2.40;99.90;;;;;;4997684;28;20183;-84
2023/03/05 02:56:03;;;;;;;6.37;2.17;;;2.40;99.90;;;;;;5007784;28;20179;-84
2023/03/05 02:58:28;;;;;;;4.17;1.50;;;2.40;99.90;;;;;;5012310;28;20187;-83
2023/03/05 03:00:54;;;;;;;7.97;2.17;;;2.50;99.90;;;;;;5011963;28;20183;-82
2023/03/05 03:03:20;;;;;;;8.37;2.20;;;2.40;99.90;;;;;;5003385;28;20223;-84
2023/03/05 03:05:45;;;;;;;8.70;1.93;;;2.40;99.90;;;;;;5009670;28;20179;-84
2023/03/05 03:08:11;;;;;;;6.77;1.60;;;2.40;99.90;;;;;;5013100;28;20190;-83
2023/03/05 03:10:37;;;;;;;8.43;2.27;;;2.40;99.90;;;;;;5012836;28;20183;-83
2023/03/05 03:13:02;;;;;;;7.90;1.67;;;2.40;99.90;;;;;;5012107;28;20187;-84
2023/03/05 03:15:28;;;;;;;7.17;1.70;;;2.30;99.90;;;;;;5013446;28;20233;-83
2023/03/05 03:17:54;;;;;;;7.10;2.00;;;2.40;99.90;;;;;;5012264;28;20499;-83
2023/03/05 03:20:20;;;;;;;3.27;1.43;;;2.30;99.90;;;;;;5012272;28;20500;-84
2023/03/05 03:22:46;;;;;;;7.40;2.37;;;2.30;99.90;;;;;;5012106;28;20219;-83
2023/03/05 03:25:21;;;;;;;5.60;1.93;;;2.30;99.90;;;;;;5013644;28;20179;-83
2023/03/05 03:27:47;;;;;;;9.53;1.80;;;2.30;99.90;;;;;;4996968;28;20188;-82
2023/03/05 03:30:14;;;;;;;9.67;2.37;;;2.30;99.90;;;;;;4991728;28;20272;-83
2023/03/05 03:32:40;;;;;;;15.77;2.00;;;2.30;99.90;;;;;;5009443;28;20239;-83
2023/03/05 03:35:07;;;;;;;5.90;1.93;;;2.30;99.90;;;;;;5012351;28;20189;-84
2023/03/05 03:37:33;;;;;;;11.80;2.57;;;2.30;99.90;;;;;;5013816;28;20234;-84
2023/03/05 03:39:58;;;;;;;8.67;2.20;;;2.20;99.90;;;;;;4998780;28;20200;-83
2023/03/05 03:42:24;;;;;;;7.93;2.47;;;2.30;99.90;;;;;;4992576;28;20299;-85
2023/03/05 03:44:51;;;;;;;8.27;2.43;;;2.30;99.90;;;;;;4994778;28;20176;-83
2023/03/05 03:47:17;;;;;;;8.63;2.30;;;2.30;99.90;;;;;;4996644;28;20172;-83
2023/03/05 03:49:43;;;;;;;7.10;2.17;;;2.30;99.90;;;;;;5005107;28;20182;-83
2023/03/05 03:52:09;;;;;;;10.67;2.60;;;2.30;99.90;;;;;;5016741;28;20175;-83
2023/03/05 03:54:35;;;;;;;9.60;2.80;;;2.30;99.90;;;;;;5015202;28;20269;-83
2023/03/05 03:57:00;;;;;;;8.27;2.20;;;2.30;99.90;;;;;;5016200;28;20164;-84
2023/03/05 03:59:26;;;;;;;10.23;2.63;;;2.30;99.90;;;;;;5015867;28;20275;-84
2023/03/05 04:01:52;;;;;;;7.40;2.20;;;2.30;99.90;;;;;;5014654;28;20257;-83
2023/03/05 04:04:17;;;;;;;8.43;2.40;;;2.30;99.90;;;;;;5015905;28;20230;-82
2023/03/05 04:06:43;;;;;;;8.00;2.50;;;2.30;99.90;;;;;;5014963;28;20175;-84
2023/03/05 04:09:09;;;;;;;5.60;2.10;;;2.30;99.90;;;;;;5015053;28;20187;-85
2023/03/05 04:11:36;;;;;;;5.50;2.20;;;2.40;99.90;;;;;;5005971;28;20187;-83
2023/03/05 04:14:02;;;;;;;8.30;2.33;;;2.40;99.90;;;;;;4996301;28;20227;-83
2023/03/05 04:16:27;;;;;;;4.67;1.80;;;2.30;99.90;;;;;;4996124;28;20705;-83
2023/03/05 04:18:53;;;;;;;9.50;2.47;;;2.30;99.90;;;;;;5003812;28;20277;-83
2023/03/05 04:21:19;;;;;;;10.27;2.63;;;2.30;99.90;;;;;;5014620;28;20179;-83
2023/03/05 04:23:45;;;;;;;7.90;2.23;;;2.30;99.90;;;;;;5013749;28;20665;-84
2023/03/05 04:26:10;;;;;;;5.30;2.47;;;2.40;99.90;;;;;;4997372;28;20190;-83
2023/03/05 04:28:37;;;;;;;11.77;2.27;;;2.30;99.90;;;;;;4995278;28;20188;-83
2023/03/05 04:31:03;;;;;;;10.60;2.83;;;2.30;99.90;;;;;;5003993;28;20253;-84
2023/03/05 04:33:28;;;;;;;11.27;2.40;;;2.20;99.90;;;;;;5014947;28;20179;-84
2023/03/05 04:35:54;;;;;;;9.73;2.60;;;2.20;99.90;;;;;;5015139;28;20278;-83
2023/03/05 04:38:20;;;;;;;5.50;2.27;;;2.10;99.90;;;;;;5014164;28;20179;-83
2023/03/05 04:40:46;;;;;;;9.83;2.40;;;2.20;99.90;;;;;;5015572;28;20183;-84
2023/03/05 04:43:12;;;;;;;9.43;2.10;;;2.20;99.90;;;;;;5014134;28;20245;-83
2023/03/05 04:45:42;;;;;;;6.80;2.20;;;2.20;99.90;;;;;;5015394;28;20200;-84
2023/03/05 04:48:09;;;;;;;9.87;2.30;;;2.20;99.90;;;;;;5014752;28;20221;-84
2023/03/05 04:50:35;;;;;;;4.57;2.23;;;2.20;99.90;;;;;;5014990;28;20179;-84
2023/03/05 04:53:00;;;;;;;5.23;2.37;;;2.20;99.90;;;;;;5014189;28;20618;-84
2023/03/05 04:55:26;;;;;;;4.73;2.40;;;2.20;99.90;;;;;;5015261;28;20191;-84
2023/03/05 04:57:52;;;;;;;6.67;2.67;;;2.30;99.90;;;;;;5014918;28;20175;-83
2023/03/05 05:00:18;;;;;;;10.50;2.60;;;2.30;99.90;;;;;;5015850;28;20174;-83
2023/03/05 05:02:46;;;;;;;10.23;2.70;;;2.30;99.90;;;;;;5013515;28;20209;-84
2023/03/05 05:05:14;;;;;;;6.17;2.03;;;2.30;99.90;;;;;;5029659;28;20189;-84
2023/03/05 05:07:40;;;;;;;5.27;2.77;;;2.30;99.90;;;;;;5013852;28;20179;-84
2023/03/05 05:10:06;;;;;;;5.97;2.43;;;2.30;99.90;;;;;;5014413;28;20179;-85
2023/03/05 05:12:33;;;;;;;4.17;2.03;;;2.40;99.90;;;;;;5014780;28;20183;-83
2023/03/05 05:15:00;;;;;;;3.73;2.30;;;2.30;99.90;;;;;;5014126;28;20617;-84
2023/03/05 05:17:29;;;;;;;9.73;2.47;;;2.20;99.90;;;;;;5030584;28;20736;-84
2023/03/05 05:19:56;;;;;;;7.77;2.50;;;2.30;99.90;;;;;;5030127;28;20229;-84
2023/03/05 05:22:22;;;;;;;6.67;2.10;;;2.30;99.90;;;;;;5030443;28;20211;-84
2023/03/05 05:24:49;;;;;;;4.93;2.23;;;2.30;99.90;;;;;;5030984;28;20302;-84
2023/03/05 05:27:14;;;;;;;7.63;2.73;;;2.30;99.90;;;;;;5030608;28;20178;-83
2023/03/05 05:29:40;;;;;;;7.90;2.40;;;2.30;99.90;;;;;;5030035;28;20183;-83
2023/03/05 05:32:06;;;;;;;10.60;3.00;;;2.30;99.90;;;;;;5019177;28;20231;-83
2023/03/05 05:34:32;;;;;;;4.03;2.03;;;2.30;99.90;;;;;;5012788;28;20277;-83
2023/03/05 05:36:58;;;;;;;6.57;2.93;;;2.20;99.90;;;;;;5015249;28;20237;-84
2023/03/05 05:39:23;;;;;;;9.00;2.77;;;2.30;99.90;;;;;;5015083;28;20209;-83
2023/03/05 05:41:51;;;;;;;7.33;2.50;;;2.30;99.90;;;;;;5013825;28;20703;-83
2023/03/05 05:44:16;;;;;;;5.00;2.53;;;2.30;99.90;;;;;;5014463;28;20258;-83
2023/03/05 05:46:43;;;;;;;4.53;2.43;;;2.20;99.90;;;;;;5012868;28;20266;-83
2023/03/05 05:49:09;;;;;;;6.70;2.97;;;2.30;99.90;;;;;;5014934;28;20201;-84
2023/03/05 05:51:35;;;;;;;6.40;2.87;;;2.30;99.90;;;;;;5013498;28;20277;-85
2023/03/05 05:54:00;;;;;;;5.30;2.43;;;2.30;99.90;;;;;;5013710;28;20176;-84
2023/03/05 05:56:28;;;;;;;10.87;3.13;;;2.30;99.90;;;;;;5013974;28;20187;-84
2023/03/05 05:58:54;;;;;;;6.83;2.87;;;2.30;99.90;;;;;;5013670;28;20230;-83
2023/03/05 06:01:29;;;;;;;6.37;2.83;;;2.20;99.90;;;;;;5002829;28;20191;-83
2023/03/05 06:03:56;;;;;;;5.63;2.90;;;2.30;99.90;;;;;;5013117;28;20193;-84
2023/03/05 06:06:24;;;;;;;4.03;2.67;;;2.40;99.90;;;;;;5008574;28;20182;-82
2023/03/05 06:08:50;;;;;;;6.90;3.40;;;2.30;99.90;;;;;;5015823;28;20704;-83
2023/03/05 06:11:16;;;;;;;8.73;2.97;;;2.30;99.90;;;;;;5013108;28;20637;-84
2023/03/05 06:13:42;;;;;;;6.77;3.27;;;2.30;99.90;;;;;;5013211;28;20639;-83
2023/03/05 06:16:12;;;;;;;10.60;3.50;;;2.40;99.90;;;;;;4993934;28;20192;-83
2023/03/05 06:18:38;;;;;;;5.03;3.00;;;2.40;99.90;;;;;;4993369;28;20226;-84
2023/03/05 06:21:07;;;;;;;8.13;3.67;;;2.40;99.90;;;;;;4992497;28;20227;-83
2023/03/05 06:23:34;;;;;;;5.17;3.20;;;2.40;99.90;;;;;;4992774;28;20705;-84
2023/03/05 06:26:02;;;;;;;4.47;2.93;;;2.40;99.90;;;;;;5010080;28;20186;-83
2023/03/05 06:28:28;;;;;;;7.27;3.07;;;2.40;99.90;;;;;;5014399;28;20172;-84
2023/03/05 06:31:00;;;;;;;5.90;3.03;;;2.40;99.90;;;;;;5013400;28;20219;-83
2023/03/05 06:33:26;;;;;;;5.67;3.60;;;2.40;99.90;;;;;;5012919;28;20258;-83
2023/03/05 06:35:52;;;;;;;6.40;2.93;;;2.30;99.90;;;;;;5013071;28;20218;-83
2023/03/05 06:38:17;;;;;;;4.77;3.00;;;2.30;99.90;;;;;;5014097;28;20180;-83
2023/03/05 06:40:43;;;;;;;4.47;2.80;;;2.40;99.90;;;;;;5011645;28;20244;-84
2023/03/05 06:43:09;;;;;;;8.00;3.13;;;2.30;99.90;;;;;;5029093;28;20217;-84
2023/03/05 06:45:35;;;;;;;6.57;3.13;;;2.40;99.90;;;;;;5017327;28;20193;-84
2023/03/05 06:48:01;;;;;;;6.33;3.07;;;2.40;99.90;;;;;;5012608;28;20194;-84
2023/03/05 06:50:27;;;;;;;5.50;2.80;;;2.30;99.90;;;;;;5027870;28;20521;-84
2023/03/05 06:52:53;;;;;;;7.00;2.77;;;2.30;99.90;;;;;;5006457;28;20190;-83
2023/03/05 06:55:20;;;;;;;5.23;2.67;;;2.30;99.90;;;;;;5009031;28;20521;-83
2023/03/05 06:57:46;;;;;;;5.57;3.00;;;2.30;99.90;;;;;;5011946;28;20191;-84
2023/03/05 07:00:12;;;;;;;6.97;2.90;;;2.30;99.90;;;;;;5011755;28;20275;-84
2023/03/05 07:02:38;;;;;;;6.60;3.07;;;2.30;99.90;;;;;;5025114;28;20534;-84
2023/03/05 07:05:05;;;;;;;8.10;3.20;;;2.40;99.90;;;;;;5012567;28;20274;-84
2023/03/05 07:07:32;;;;;;;11.33;3.37;;;2.30;99.90;;;;;;5013197;28;20656;-84
2023/03/05 07:09:57;;;;;;;6.83;3.90;;;2.30;99.90;;;;;;5014267;28;20662;-84
2023/03/05 07:12:23;;;;;;;8.93;2.77;;;2.30;99.90;;;;;;5013334;28;20618;-83
2023/03/05 07:14:49;;;;;;;6.47;3.27;;;2.30;99.90;;;;;;5013129;28;20195;-84
2023/03/05 07:17:15;;;;;;;7.97;3.33;;;2.50;99.90;;;;;;5011846;28;20217;-83
2023/03/05 07:19:41;;;;;;;8.43;2.83;;;2.50;99.90;;;;;;5015283;28;20187;-84
2023/03/05 07:22:07;;;;;;;8.47;3.17;;;2.50;99.90;;;;;;5017974;28;20199;-84
2023/03/05 07:24:33;;;;;;;7.70;3.10;;;2.60;99.90;;;;;;5016605;28;20679;-83
2023/03/05 07:26:59;;;;;;;7.33;2.53;;;2.60;99.90;;;;;;5017249;28;20174;-82
2023/03/05 07:29:27;;;;;;;7.67;2.93;;;2.60;99.90;;;;;;5015566;28;20182;-83
2023/03/05 07:31:53;;;;;;;9.17;3.10;;;2.60;99.90;;;;;;5012180;28;20277;-83
2023/03/05 07:34:19;;;;;;;7.57;2.73;;;2.60;99.90;;;;;;4996797;28;20176;-83
2023/03/05 07:36:48;;;;;;;8.53;3.00;;;2.70;99.90;;;;;;5007156;28;20237;-83
2023/03/05 07:39:14;;;;;;;7.93;3.07;;;2.70;99.90;;;;;;5012046;28;20198;-83
2023/03/05 07:41:40;;;;;;;8.00;3.17;;;2.80;99.90;;;;;;4996733;28;20622;-84
2023/03/05 07:44:05;;;;;;;10.40;3.83;;;2.90;99.90;;;;;;5002477;28;20191;-83
2023/03/05 07:46:33;;;;;;;8.87;3.40;;;2.90;99.90;;;;;;5016265;28;20581;-83
2023/03/05 07:48:59;;;;;;;8.40;2.80;;;3.00;99.90;;;;;;5015682;28;20244;-83
2023/03/05 07:51:26;;;;;;;7.63;2.80;;;3.00;99.90;;;;;;5014725;28;20269;-83
2023/03/05 07:53:53;;;;;;;6.37;2.50;;;3.00;99.90;;;;;;5014651;28;20186;-84
2023/03/05 07:56:34;;;;;;;4.57;3.07;;;3.00;99.90;;;;;;5015667;28;20187;-83
2023/03/05 07:59:05;;;;;;;9.37;3.13;;;3.00;99.90;;;;;;5012425;28;20186;-83
2023/03/05 08:01:32;;;;;;;6.47;2.77;;;3.10;99.90;;;;;;5009880;28;20183;-84
2023/03/05 08:03:58;;;;;;;12.13;3.07;;;3.10;99.90;;;;;;5014107;28;20183;-83
2023/03/05 08:06:24;;;;;;;5.50;2.87;;;3.20;99.90;;;;;;5016877;28;20202;-83
2023/03/05 08:08:49;;;;;;;12.70;3.47;;;3.10;99.90;;;;;;5038146;28;20186;-84
2023/03/05 08:11:15;;;;;;;6.10;2.50;;;3.10;99.90;;;;;;5044914;28;20233;-83
2023/03/05 08:13:43;;;;;;;8.73;2.93;;;3.20;99.90;;;;;;5024856;28;20573;-83
2023/03/05 08:16:17;;;;;;;4.93;2.70;;;3.10;99.90;;;;;;5019143;28;20509;-83
2023/03/05 08:18:43;;;;;;;5.70;2.40;;;3.00;99.90;;;;;;5022112;28;20563;-83
2023/03/05 08:21:28;;;;;;;6.40;2.60;;;3.10;99.90;;;;;;5025109;28;20214;-83
2023/03/05 08:23:57;;;;;;;7.00;2.80;;;3.00;99.90;;;;;;5029249;28;20349;-83
2023/03/05 08:26:25;;;;;;;5.00;2.63;;;3.00;99.90;;;;;;5021864;28;20184;-83
2023/03/05 08:28:51;;;;;;;10.13;2.87;;;2.90;99.90;;;;;;5024803;28;20198;-84
2023/03/05 08:31:20;;;;;;;5.47;2.67;;;3.00;99.90;;;;;;5038558;28;20254;-83
2023/03/05 08:33:46;;;;;;;7.87;2.70;;;3.00;99.90;;;;;;5016874;28;20604;-84
2023/03/05 08:36:12;;;;;;;9.10;3.40;;;2.90;99.90;;;;;;5022350;28;20181;-83
2023/03/05 08:38:38;;;;;;;8.90;2.80;;;2.90;99.90;;;;;;5022363;28;20641;-83
2023/03/05 08:41:04;;;;;;;7.40;2.40;;;3.00;99.90;;;;;;5042615;28;20214;-85
2023/03/05 08:43:30;;;;;;;7.80;2.57;;;3.00;99.90;;;;;;5022725;28;20210;-84
2023/03/05 08:45:56;;;;;;;6.37;2.27;;;3.10;99.90;;;;;;5034720;28;20263;-85
2023/03/05 08:48:22;;;;;;;6.80;2.80;;;3.10;99.90;;;;;;5019467;28;20175;-83
2023/03/05 08:50:48;;;;;;;6.93;2.67;;;3.20;99.90;;;;;;5025835;28;20179;-83
2023/03/05 08:53:14;;;;;;;5.00;2.47;;;3.20;99.90;;;;;;5020533;28;20175;-85
2023/03/05 08:55:40;;;;;;;5.27;2.63;;;3.30;99.90;;;;;;5038042;28;20189;-84
2023/03/05 08:58:06;;;;;;;3.97;2.07;;;3.30;99.90;;;;;;5026538;28;20569;-85
2023/03/05 09:00:31;;;;;;;3.47;1.83;;;3.30;99.90;;;;;;5039609;28;20226;-84
2023/03/05 09:02:57;;;;;;;3.33;2.23;;;3.30;99.90;;;;;;5028179;28;20215;-84
2023/03/05 09:05:23;;;;;;;4.67;2.33;;;3.20;99.90;;;;;;5024333;28;20191;-83
2023/03/05 09:07:49;;;;;;;7.03;2.43;;;3.30;99.90;;;;;;5036892;28;20180;-85
2023/03/05 09:10:17;;;;;;;5.80;2.50;;;3.20;99.90;;;;;;5018286;28;20629;-85
2023/03/05 09:12:43;;;;;;;7.27;2.60;;;3.20;99.90;;;;;;5019474;28;20182;-85
2023/03/05 09:15:10;;;;;;;5.90;2.50;;;3.30;99.90;;;;;;5019013;28;20203;-84
2023/03/05 09:17:37;;;;;;;6.43;2.50;;;3.40;99.90;;;;;;5016309;28;20186;-83
2023/03/05 09:20:05;;;;;;;5.83;2.60;;;3.50;99.90;;;;;;5018977;28;20189;-84
2023/03/05 09:22:31;;;;;;;4.13;2.17;;;3.40;99.90;;;;;;5042209;28;20257;-83
2023/03/05 09:24:58;;;;;;;4.20;2.33;;;3.40;99.90;;;;;;5015767;28;20715;-83
2023/03/05 09:27:23;;;;;;;6.30;2.40;;;3.40;99.90;;;;;;5036416;28;20579;-85
2023/03/05 09:29:51;;;;;;;5.20;2.40;;;3.30;99.90;;;;;;5017489;28;20274;-84
2023/03/05 09:32:16;;;;;;;7.73;2.50;;;3.30;99.90;;;;;;5028091;28;20564;-83
2023/03/05 09:34:42;;;;;;;3.63;2.40;;;3.30;99.90;;;;;;5039474;28;20540;-84
2023/03/05 09:37:08;;;;;;;2.30;1.30;;;3.20;99.90;;;;;;5041092;28;20186;-82
2023/03/05 09:39:35;;;;;;;2.17;1.10;;;3.00;99.90;;;;;;5015939;28;20185;-83
2023/03/05 09:42:13;;;;;;;4.23;1.17;;;2.60;99.90;;;;;;5039441;28;20644;-84
2023/03/05 09:44:59;;;;;;;1.40;0.90;;;2.20;99.90;;;;;;5013455;28;20190;-83
2023/03/05 09:47:54;;;;;;;0.67;0.60;;;1.90;99.90;;;;;;5027483;28;20205;-85
2023/03/05 09:50:40;;;;;;;1.40;0.63;;;1.70;99.90;;;;;;5016019;28;20513;-84
2023/03/05 09:53:25;;;;;;;1.70;0.80;;;1.60;99.90;;;;;;5018456;28;20545;-84
2023/03/05 09:56:03;;;;;;;0.87;0.70;;;1.60;99.90;;;;;;5024099;28;20514;-85
2023/03/05 09:58:39;;;;;;;2.13;0.80;;;1.60;99.90;;;;;;5019419;28;20186;-84
2023/03/05 10:01:12;;;;;;;1.70;1.10;;;1.70;99.90;;;;;;5017311;28;20174;-83
2023/03/05 10:04:03;;;;;;;4.40;1.50;;;1.70;99.90;;;;;;5033713;28;20220;-83
2023/03/05 10:06:43;;;;;;;1.40;1.20;;;1.80;99.90;;;;;;5032798;28;20189;-84
2023/03/05 10:09:09;;;;;;;4.00;1.77;;;1.90;99.90;;;;;;5017356;28;20189;-85
2023/03/05 10:11:46;;;;;;;3.33;1.87;;;2.00;99.90;;;;;;5024447;28;20193;-85
2023/03/05 10:14:25;;;;;;;3.50;2.00;;;2.10;99.90;;;;;;5026626;28;20256;-86
2023/03/05 10:17:03;;;;;;;4.20;2.13;;;2.20;99.90;;;;;;5036849;28;20189;-85
2023/03/05 10:19:46;;;;;;;3.80;2.27;;;2.20;99.90;;;;;;5020424;28;20187;-85
2023/03/05 10:22:28;;;;;;;4.60;2.30;;;2.30;99.90;;;;;;5030174;28;20198;-85
2023/03/05 10:25:08;;;;;;;4.63;2.30;;;2.40;99.90;;;;;;5036713;28;20621;-85
2023/03/05 10:28:04;;;;;;;6.73;2.43;;;2.50;99.90;;;;;;5021349;28;20176;-85
2023/03/05 10:30:58;;;;;;;4.10;2.00;;;2.70;99.90;;;;;;5010257;28;20511;-85
2023/03/05 10:33:45;;;;;;;5.70;2.50;;;2.80;99.90;;;;;;5024759;28;20190;-85
2023/03/05 10:36:17;;;;;;;6.77;2.00;;;2.90;99.90;;;;;;5015422;28;20626;-85
2023/03/05 10:39:22;;;;;;;5.13;1.70;;;3.10;99.90;;;;;;5037223;28;20274;-85
2023/03/05 10:42:11;;;;;;;4.17;1.87;;;3.30;99.90;;;;;;5036967;28;20523;-84
2023/03/05 10:44:48;;;;;;;2.43;1.57;;;3.50;99.90;;;;;;5035203;28;20224;-85
2023/03/05 10:47:35;;;;;;;5.87;2.07;;;3.60;99.90;;;;;;5013750;28;20179;-85
2023/03/05 10:50:11;;;;;;;2.77;1.30;;;3.80;99.90;;;;;;5013121;28;20611;-86
2023/03/05 10:52:45;;;;;;;3.90;1.30;;;3.90;99.90;;;;;;5017033;28;20182;-85
2023/03/05 10:55:17;;;;;;;1.83;0.90;;;4.00;99.90;;;;;;5034889;28;20255;-85
2023/03/05 10:57:44;;;;;;;3.57;0.97;;;4.20;99.90;;;;;;5019507;28;20277;-86
2023/03/05 11:00:17;;;;;;;1.60;0.83;;;4.40;99.90;;;;;;5028078;28;20567;-87
2023/03/05 11:03:05;;;;;;;4.50;1.00;;;4.30;99.90;;;;;;5023616;28;20211;-87
2023/03/05 11:05:38;;;;;;;2.70;0.90;;;4.30;99.90;;;;;;5021411;28;20198;-84
2023/03/05 11:08:26;;;;;;;3.53;0.77;;;4.30;99.90;;;;;;5011955;28;20190;-85
2023/03/05 11:11:10;;;;;;;4.67;1.53;;;4.30;99.90;;;;;;5025185;28;20745;-85
2023/03/05 11:13:57;;;;;;;2.27;0.90;;;4.30;99.90;;;;;;5025392;28;20682;-84
2023/03/05 11:16:30;;;;;;;4.00;1.10;;;4.30;99.90;;;;;;5030681;28;20875;-86
2023/03/05 11:19:14;;;;;;;4.57;1.47;;;4.50;99.90;;;;;;5018838;28;20178;-85
2023/03/05 11:21:41;;;;;;;3.33;1.50;;;4.60;99.90;;;;;;5023648;28;20614;-86
2023/03/05 11:24:14;;;;;;;4.87;2.50;;;4.70;99.90;;;;;;5024571;28;20218;-87
2023/03/05 11:26:55;;;;;;;1.93;1.40;;;4.70;99.90;;;;;;5030998;28;20182;-84
2023/03/05 11:29:29;;;;;;;2.10;1.20;;;4.70;99.90;;;;;;5038453;28;20190;-86
2023/03/05 11:32:13;;;;;;;3.63;1.47;;;4.90;99.90;;;;;;5027275;28;20258;-87
2023/03/05 11:34:39;;;;;;;3.20;1.40;;;4.90;99.90;;;;;;5016757;28;20277;-85
2023/03/05 11:37:05;;;;;;;5.23;1.40;;;4.90;99.90;;;;;;5019130;28;20210;-85
2023/03/05 11:39:37;;;;;;;6.63;1.97;;;4.90;99.90;;;;;;5045530;28;20209;-84
2023/03/05 11:42:18;;;;;;;4.00;1.20;;;4.90;99.90;;;;;;5035879;28;20218;-85
2023/03/05 11:44:50;;;;;;;2.97;1.50;;;4.90;99.90;;;;;;5006249;28;20248;-85
2023/03/05 11:47:31;;;;;;;3.40;1.50;;;4.80;99.90;;;;;;5028826;28;20175;-84
2023/03/05 11:50:11;;;;;;;2.87;1.73;;;4.60;99.90;;;;;;5022764;28;20183;-85
2023/03/05 11:52:48;;;;;;;2.50;1.20;;;4.50;99.90;;;;;;5012413;28;20188;-84
2023/03/05 11:55:34;;;;;;;1.93;1.30;;;4.50;99.90;;;;;;5032482;28;20597;-84
2023/03/05 11:58:06;;;;;;;3.03;1.33;;;4.60;99.90;;;;;;5026284;28;20179;-86
2023/03/05 12:00:37;;;;;;;3.40;1.50;;;4.60;99.90;;;;;;5021721;28;20195;-87
2023/03/05 12:03:37;;;;;;;4.50;2.23;;;4.40;99.90;;;;;;5016466;28;20206;-84
2023/03/05 12:06:27;;;;;;;3.93;1.83;;;4.40;99.90;;;;;;4978631;28;20245;-84
2023/03/05 12:08:56;;;;;;;2.40;1.43;;;4.30;99.90;;;;;;5035919;28;20182;-84
2023/03/05 12:11:31;;;;;;;3.67;1.40;;;4.20;99.90;;;;;;5037627;28;20206;-84
2023/03/05 12:14:27;;;;;;;1.97;1.30;;;4.20;99.90;;;;;;5043073;28;20272;-83
2023/03/05 12:17:09;;;;;;;5.23;1.17;;;4.20;99.90;;;;;;5026468;28;20195;-85
2023/03/05 12:19:45;;;;;;;8.13;4.37;;;4.20;99.90;;;;;;5029491;28;20175;-84
2023/03/05 12:22:23;;;;;;;5.23;3.07;;;4.20;99.90;;;;;;5022568;28;20211;-85
2023/03/05 12:24:50;;;;;;;3.73;2.10;;;4.20;99.90;;;;;;5032409;28;20179;-85
2023/03/05 12:27:34;;;;;;;5.40;2.50;;;4.20;99.90;;;;;;5022560;28;20221;-84
2023/03/05 12:30:01;;;;;;;3.80;2.07;;;4.10;99.90;;;;;;5017950;28;20621;-85
2023/03/05 12:32:35;;;;;;;3.47;1.90;;;4.10;99.90;;;;;;5017326;28;20230;-84
2023/03/05 12:35:34;;;;;;;3.03;1.90;;;3.90;99.90;;;;;;5014732;28;20630;-84
2023/03/05 12:38:03;;;;;;;3.73;2.27;;;3.90;99.90;;;;;;4998902;28;20234;-85
2023/03/05 12:40:32;;;;;;;4.80;1.90;;;4.00;99.90;;;;;;5010835;28;20207;-85
2023/03/05 12:43:00;;;;;;;6.00;2.30;;;3.90;99.90;;;;;;5043357;28;20221;-85
2023/03/05 12:45:31;;;;;;;6.57;2.17;;;3.90;99.90;;;;;;5020739;28;21287;-84
2023/03/05 12:47:56;;;;;;;4.87;1.77;;;3.80;99.90;;;;;;5022178;28;20530;-87
2023/03/05 12:50:28;;;;;;;3.80;1.83;;;3.80;99.90;;;;;;5039531;28;20193;-85
2023/03/05 12:53:08;;;;;;;5.10;1.97;;;4.00;99.90;;;;;;5024994;28;20191;-84
2023/03/05 12:55:46;;;;;;;3.03;1.87;;;4.20;99.90;;;;;;5037995;28;20208;-84
2023/03/05 12:58:33;;;;;;;6.60;1.83;;;4.50;99.90;;;;;;5040288;28;20185;-84
2023/03/05 13:01:12;;;;;;;2.43;1.50;;;4.60;99.90;;;;;;5028364;28;20656;-85
2023/03/05 13:03:45;;;;;;;3.03;1.40;;;4.60;99.90;;;;;;5039250;28;20230;-85
2023/03/05 13:06:28;;;;;;;3.90;1.60;;;4.70;99.90;;;;;;5033806;28;20621;-84
2023/03/05 13:09:03;;;;;;;8.83;1.80;;;4.70;99.90;;;;;;5015983;28;20198;-85